Terminal Aerodrome Forecast
Issued by NWS Cleveland, OH

Home | Current Version | Previous Version | Graphics & Text | Print | Product List | Glossary On
Versions: 1 2 3 4 5 6 7 8 9 10 11 12 13 14 15 16 17 18 19 20 21 22 23 24
000
FTUS41 KCLE 221100
TAFMFD
TAF
KMFD 221120Z 2212/2312 31006KT 6SM BR SCT010 OVC020
      TEMPO 2212/2216 5SM -FZDZ BR OVC010
     FM221600 31005KT P6SM OVC025
     FM230200 VRB03KT P6SM SCT015 BKN045
     FM230400 24004KT P6SM BKN015
     FM230800 VRB03KT 5SM BR OVC015=

USA.gov is the U.S. government's official web portal to all federal, state and local government web resources and services.